Morning Clara — 9V7564 — position and weather

sailwx.info

Track history (hours):
 
Tides and Currents Weather Stations Pressure Air Temp Water Temp Dewpoint Dewpoint Depression Visibility Wind Speed Wind Dir Waves Ship Positions

Morning Clara

Last reported at 2018-Apr-19 07:07 UTC. Time now 2018-Apr-23 13:46 UTC.
Position N 32°10' W 079°51'.

Length 200 m; draft 8.3 m.

Type: Cargo ship. MMSI: 564254000.

Date/timePositionNaut miles runAvg speedWind from/ knotsBaromVisibWave heightAir tempDewpointWater temp
2018-Apr-19 07:07N 32°10' W 079°51'110.6
2018-Apr-19 06:59N 32°09' W 079°52'510.7
2018-Apr-19 06:30N 32°04' W 079°56'510.8
2018-Apr-19 06:00N 31°60' W 079°59'610.7
2018-Apr-19 05:26N 31°55' W 080°03'512.1
2018-Apr-19 05:00N 31°51' W 080°07'816.6
2018-Apr-19 04:30N 31°44' W 080°12'917.4
2018-Apr-19 03:59N 31°36' W 080°18'817.6
2018-Apr-19 03:30N 31°29' W 080°24'1517.5
2018-Apr-19 02:39N 31°18' W 080°35'418.4
2018-Apr-19 02:25N 31°14' W 080°38'819.9
2018-Apr-19 02:00N 31°08' W 080°44'1019.3
2018-Apr-19 01:30N 31°05' W 080°55'1018.5
2018-Apr-19 00:59N 31°03' W 081°06'815.0
2018-Apr-19 00:28N 31°03' W 081°15'511.1
2018-Apr-18 23:59N 31°06' W 081°20'11 1.0
2018-Apr-18 12:43N 31°08' W 081°32'0 0.0
2018-Apr-18 12:19N 31°08' W 081°32'0 0.0
2018-Apr-18 11:19N 31°08' W 081°32'0 0.0
2018-Apr-18 10:55N 31°08' W 081°32'0 0.0
2018-Apr-18 10:13N 31°08' W 081°32'0 0.0
2018-Apr-18 09:49N 31°08' W 081°32'0 0.0
2018-Apr-18 09:29N 31°08' W 081°32'58313.4
2018-Apr-16 14:01N 38°29' W 073°48'016.4
2018-Apr-16 14:00N 38°29' W 073°48'6616.8
2018-Apr-16 10:04N 39°35' W 073°52'317.2
2018-Apr-16 09:55N 39°37' W 073°52'817.1
2018-Apr-16 09:28N 39°45' W 073°52'3114.7
2018-Apr-16 07:23N 40°16' W 073°49'4 9.4
2018-Apr-16 06:58N 40°20' W 073°49'5 9.4
2018-Apr-16 06:29N 40°24' W 073°48'3 6.6
2018-Apr-16 06:01N 40°27' W 073°49'4 8.3
2018-Apr-16 05:31N 40°29' W 073°54'510.6
2018-Apr-16 05:01N 40°31' W 073°60'612.0
2018-Apr-16 04:31N 40°37' W 074°03'3 6.2
2018-Apr-16 04:00N 40°40' W 074°04'0 0.8
2018-Apr-16 03:29N 40°40' W 074°04'0 0.0
2018-Apr-16 02:59N 40°40' W 074°04'0 0.0
2018-Apr-16 02:29N 40°40' W 074°04'0 0.0
2018-Apr-16 01:59N 40°40' W 074°04'0 0.0
2018-Apr-16 01:29N 40°40' W 074°04'0 0.0
2018-Apr-16 00:59N 40°40' W 074°04'0 0.0
2018-Apr-16 00:29N 40°40' W 074°04'0 0.0
2018-Apr-15 23:59N 40°40' W 074°04'0 0.0
2018-Apr-15 23:29N 40°40' W 074°04'0 0.0
2018-Apr-15 22:59N 40°40' W 074°04'0 0.0
2018-Apr-15 22:30N 40°40' W 074°04'0 0.5
2018-Apr-15 22:00N 40°40' W 074°04'2 4.1
2018-Apr-15 21:30N 40°39' W 074°06'2 4.0
2018-Apr-15 21:00N 40°39' W 074°09'2 4.2
2018-Apr-15 20:30N 40°41' W 074°08'1 1.0
2018-Apr-15 20:00N 40°42' W 074°09'0 0.0
2018-Apr-15 19:30N 40°42' W 074°09'0 0.0
2018-Apr-15 19:00N 40°42' W 074°09'0 0.0
2018-Apr-15 18:30N 40°42' W 074°09'0 0.0
2018-Apr-15 18:00N 40°42' W 074°09'0 0.0
2018-Apr-15 17:30N 40°42' W 074°09'0 0.0
2018-Apr-15 17:00N 40°42' W 074°09'0 0.0
2018-Apr-15 16:30N 40°42' W 074°09'0 0.0
2018-Apr-15 16:00N 40°42' W 074°09'0 0.0
2018-Apr-15 15:30N 40°42' W 074°09'0 0.0
2018-Apr-15 15:00N 40°42' W 074°09'0 0.0
2018-Apr-15 14:30N 40°42' W 074°09'0 0.0
2018-Apr-15 14:00N 40°42' W 074°09'0 0.0
2018-Apr-15 13:30N 40°42' W 074°09'0 0.0
2018-Apr-15 13:00N 40°42' W 074°09'0 0.0
2018-Apr-15 12:30N 40°42' W 074°09'0 0.0
2018-Apr-15 12:00N 40°42' W 074°09'0 0.0
2018-Apr-15 11:30N 40°42' W 074°09'0 0.0
2018-Apr-15 11:00N 40°42' W 074°09'1 1.4
2018-Apr-15 10:31N 40°41' W 074°08'3 5.2
2018-Apr-15 10:00N 40°39' W 074°08'4 7.0
2018-Apr-15 09:30N 40°38' W 074°03'3 6.9
2018-Apr-15 09:00N 40°35' W 074°02'5 9.6
2018-Apr-15 08:30N 40°31' W 073°59'814.5
2018-Apr-15 07:58N 40°28' W 073°50'3 7.0
2018-Apr-15 07:31N 40°27' W 073°45'1 2.8
2018-Apr-15 07:00N 40°27' W 073°44'2 4.0
2018-Apr-15 06:30N 40°27' W 073°41'  
Track history (hours):
 
Tides and Currents Weather Stations Pressure Air Temp Water Temp Dewpoint Dewpoint Depression Visibility Wind Speed Wind Dir Waves Ship Positions

Morning Clara

Last reported at 2018-Apr-19 07:07 UTC. Time now 2018-Apr-23 13:47 UTC.
Position N 32°10' W 079°51'.

Length 200 m; draft 8.3 m.

Type: Cargo ship. MMSI: 564254000.

Date/timePositionNaut miles runAvg speedWind from/ knotsBaromVisibWave heightAir tempDewpointWater temp
2018-Apr-19 07:07N 32°10' W 079°51'110.6
2018-Apr-19 06:59N 32°09' W 079°52'510.7
2018-Apr-19 06:30N 32°04' W 079°56'510.8
2018-Apr-19 06:00N 31°60' W 079°59'610.7
2018-Apr-19 05:26N 31°55' W 080°03'512.1
2018-Apr-19 05:00N 31°51' W 080°07'816.6
2018-Apr-19 04:30N 31°44' W 080°12'917.4
2018-Apr-19 03:59N 31°36' W 080°18'817.6
2018-Apr-19 03:30N 31°29' W 080°24'1517.5
2018-Apr-19 02:39N 31°18' W 080°35'418.4
2018-Apr-19 02:25N 31°14' W 080°38'819.9
2018-Apr-19 02:00N 31°08' W 080°44'1019.3
2018-Apr-19 01:30N 31°05' W 080°55'1018.5
2018-Apr-19 00:59N 31°03' W 081°06'815.0
2018-Apr-19 00:28N 31°03' W 081°15'511.1
2018-Apr-18 23:59N 31°06' W 081°20'11 1.0
2018-Apr-18 12:43N 31°08' W 081°32'0 0.0
2018-Apr-18 12:19N 31°08' W 081°32'0 0.0
2018-Apr-18 11:19N 31°08' W 081°32'0 0.0
2018-Apr-18 10:55N 31°08' W 081°32'0 0.0
2018-Apr-18 10:13N 31°08' W 081°32'0 0.0
2018-Apr-18 09:49N 31°08' W 081°32'0 0.0
2018-Apr-18 09:29N 31°08' W 081°32'58313.4
2018-Apr-16 14:01N 38°29' W 073°48'016.4
2018-Apr-16 14:00N 38°29' W 073°48'6616.8
2018-Apr-16 10:04N 39°35' W 073°52'317.2
2018-Apr-16 09:55N 39°37' W 073°52'817.1
2018-Apr-16 09:28N 39°45' W 073°52'3114.7
2018-Apr-16 07:23N 40°16' W 073°49'4 9.4
2018-Apr-16 06:58N 40°20' W 073°49'5 9.4
2018-Apr-16 06:29N 40°24' W 073°48'3 6.6
2018-Apr-16 06:01N 40°27' W 073°49'4 8.3
2018-Apr-16 05:31N 40°29' W 073°54'510.6
2018-Apr-16 05:01N 40°31' W 073°60'612.0
2018-Apr-16 04:31N 40°37' W 074°03'3 6.2
2018-Apr-16 04:00N 40°40' W 074°04'0 0.8
2018-Apr-16 03:29N 40°40' W 074°04'0 0.0
2018-Apr-16 02:59N 40°40' W 074°04'0 0.0
2018-Apr-16 02:29N 40°40' W 074°04'0 0.0
2018-Apr-16 01:59N 40°40' W 074°04'0 0.0
2018-Apr-16 01:29N 40°40' W 074°04'0 0.0
2018-Apr-16 00:59N 40°40' W 074°04'0 0.0
2018-Apr-16 00:29N 40°40' W 074°04'0 0.0
2018-Apr-15 23:59N 40°40' W 074°04'0 0.0
2018-Apr-15 23:29N 40°40' W 074°04'0 0.0
2018-Apr-15 22:59N 40°40' W 074°04'0 0.0
2018-Apr-15 22:30N 40°40' W 074°04'0 0.5
2018-Apr-15 22:00N 40°40' W 074°04'2 4.1
2018-Apr-15 21:30N 40°39' W 074°06'2 4.0
2018-Apr-15 21:00N 40°39' W 074°09'2 4.2
2018-Apr-15 20:30N 40°41' W 074°08'1 1.0
2018-Apr-15 20:00N 40°42' W 074°09'0 0.0
2018-Apr-15 19:30N 40°42' W 074°09'0 0.0
2018-Apr-15 19:00N 40°42' W 074°09'0 0.0
2018-Apr-15 18:30N 40°42' W 074°09'0 0.0
2018-Apr-15 18:00N 40°42' W 074°09'0 0.0
2018-Apr-15 17:30N 40°42' W 074°09'0 0.0
2018-Apr-15 17:00N 40°42' W 074°09'0 0.0
2018-Apr-15 16:30N 40°42' W 074°09'0 0.0
2018-Apr-15 16:00N 40°42' W 074°09'0 0.0
2018-Apr-15 15:30N 40°42' W 074°09'0 0.0
2018-Apr-15 15:00N 40°42' W 074°09'0 0.0
2018-Apr-15 14:30N 40°42' W 074°09'0 0.0
2018-Apr-15 14:00N 40°42' W 074°09'0 0.0
2018-Apr-15 13:30N 40°42' W 074°09'0 0.0
2018-Apr-15 13:00N 40°42' W 074°09'0 0.0
2018-Apr-15 12:30N 40°42' W 074°09'0 0.0
2018-Apr-15 12:00N 40°42' W 074°09'0 0.0
2018-Apr-15 11:30N 40°42' W 074°09'0 0.0
2018-Apr-15 11:00N 40°42' W 074°09'1 1.4
2018-Apr-15 10:31N 40°41' W 074°08'3 5.2
2018-Apr-15 10:00N 40°39' W 074°08'4 7.0
2018-Apr-15 09:30N 40°38' W 074°03'3 6.9
2018-Apr-15 09:00N 40°35' W 074°02'5 9.6
2018-Apr-15 08:30N 40°31' W 073°59'814.5
2018-Apr-15 07:58N 40°28' W 073°50'3 7.0
2018-Apr-15 07:31N 40°27' W 073°45'1 2.8
2018-Apr-15 07:00N 40°27' W 073°44'2 4.0
2018-Apr-15 06:30N 40°27' W 073°41'  

Dump ship's entire track history